createdAt,value
2018-11-11T00:00:04.257Z,99.90
2018-11-11T00:02:32.809Z,99.90
2018-11-11T00:05:01.419Z,99.90
2018-11-11T00:07:29.982Z,99.90
2018-11-11T00:09:58.559Z,99.90
2018-11-11T00:12:27.142Z,99.90
2018-11-11T00:14:55.722Z,99.90
2018-11-11T00:17:24.285Z,99.90
2018-11-11T00:19:52.847Z,99.90
2018-11-11T00:22:21.411Z,99.90
2018-11-11T00:24:49.959Z,99.90
2018-11-11T00:27:18.497Z,99.90
2018-11-11T00:29:47.043Z,99.90
2018-11-11T00:32:15.615Z,99.90
2018-11-11T00:34:44.186Z,99.90
2018-11-11T00:37:12.731Z,99.90
2018-11-11T00:39:41.323Z,99.90
2018-11-11T00:42:09.865Z,99.90
2018-11-11T00:44:38.436Z,99.90
2018-11-11T00:47:07.019Z,99.90
2018-11-11T00:49:35.557Z,99.90
2018-11-11T00:52:04.098Z,99.90
2018-11-11T00:54:32.664Z,99.90
2018-11-11T00:57:01.213Z,99.90
2018-11-11T00:59:29.764Z,99.90
2018-11-11T01:01:58.314Z,99.90
2018-11-11T01:04:26.928Z,99.90
2018-11-11T01:06:55.485Z,99.90
2018-11-11T01:09:24.033Z,99.90
2018-11-11T01:11:52.645Z,99.90
2018-11-11T01:14:21.251Z,99.90
2018-11-11T01:16:49.820Z,99.90
2018-11-11T01:19:18.398Z,99.90
2018-11-11T01:21:46.959Z,99.90
2018-11-11T01:24:15.516Z,99.90
2018-11-11T01:26:44.055Z,99.90
2018-11-11T01:29:12.593Z,99.90
2018-11-11T01:31:41.123Z,99.90
2018-11-11T01:34:09.700Z,99.90
2018-11-11T01:36:38.244Z,99.90
2018-11-11T01:39:08.015Z,99.90
2018-11-11T01:41:36.581Z,99.90
2018-11-11T01:44:06.060Z,99.90
2018-11-11T01:46:34.609Z,99.90
2018-11-11T01:49:03.173Z,99.90
2018-11-11T01:51:31.755Z,99.90
2018-11-11T01:54:00.317Z,99.90
2018-11-11T01:56:28.922Z,99.90
2018-11-11T01:58:57.469Z,99.90
2018-11-11T02:01:26.086Z,99.90
2018-11-11T02:03:54.671Z,99.90
2018-11-11T02:06:25.284Z,99.90
2018-11-11T02:08:53.864Z,99.90
2018-11-11T02:11:22.399Z,99.90
2018-11-11T02:13:50.996Z,99.90
2018-11-11T02:16:19.556Z,99.90
2018-11-11T02:18:48.120Z,99.90
2018-11-11T02:21:16.737Z,99.90
2018-11-11T02:23:45.304Z,99.90
2018-11-11T02:26:13.940Z,99.90
2018-11-11T02:28:42.517Z,99.90
2018-11-11T02:31:11.083Z,99.90
2018-11-11T02:33:39.610Z,99.90
2018-11-11T02:36:08.182Z,99.90
2018-11-11T02:38:36.756Z,99.90
2018-11-11T02:41:06.061Z,99.90
2018-11-11T02:43:34.608Z,99.90
2018-11-11T02:46:03.189Z,99.90
2018-11-11T02:48:31.773Z,99.90
2018-11-11T02:51:00.337Z,99.90
2018-11-11T02:53:28.876Z,99.90
2018-11-11T02:55:57.440Z,99.90
2018-11-11T02:58:25.979Z,99.90
2018-11-11T03:00:54.538Z,99.90
2018-11-11T03:03:23.516Z,99.90
2018-11-11T03:05:52.088Z,99.90
2018-11-11T03:08:20.668Z,99.90
2018-11-11T03:10:49.198Z,99.90
2018-11-11T03:13:17.823Z,99.90
2018-11-11T03:15:46.351Z,99.90
2018-11-11T03:18:14.930Z,99.90
2018-11-11T03:20:43.472Z,99.90
2018-11-11T03:23:12.014Z,99.90
2018-11-11T03:25:40.571Z,99.90
2018-11-11T03:28:09.148Z,99.90
2018-11-11T03:30:37.708Z,99.90
2018-11-11T03:33:06.311Z,99.90
2018-11-11T03:35:34.890Z,99.90
2018-11-11T03:38:03.437Z,99.90
2018-11-11T03:40:32.224Z,99.90
2018-11-11T03:43:00.756Z,99.90
2018-11-11T03:45:29.304Z,99.90
2018-11-11T03:47:57.831Z,99.90
2018-11-11T03:50:26.377Z,99.90
2018-11-11T03:52:54.932Z,99.90
2018-11-11T03:55:23.473Z,99.90
2018-11-11T03:57:52.043Z,99.90
2018-11-11T04:00:20.595Z,99.90
2018-11-11T04:02:49.160Z,99.90
2018-11-11T04:05:18.278Z,99.90
2018-11-11T04:07:46.847Z,99.90
2018-11-11T04:10:16.613Z,99.90
2018-11-11T04:12:45.577Z,99.90
2018-11-11T04:15:15.632Z,99.90
2018-11-11T04:17:44.311Z,99.90
2018-11-11T04:20:14.194Z,99.90
2018-11-11T04:22:42.753Z,99.90
2018-11-11T04:25:11.701Z,99.90
2018-11-11T04:27:40.261Z,99.90
2018-11-11T04:30:09.947Z,99.90
2018-11-11T04:32:38.527Z,99.90
2018-11-11T04:35:07.324Z,99.90
2018-11-11T04:37:35.867Z,99.90
2018-11-11T04:40:04.829Z,99.90
2018-11-11T04:42:33.374Z,99.90
2018-11-11T04:45:01.988Z,99.90
2018-11-11T04:47:30.528Z,99.90
2018-11-11T04:49:59.092Z,99.90
2018-11-11T04:52:27.647Z,99.90
2018-11-11T04:54:56.209Z,99.90
2018-11-11T04:57:24.741Z,99.90
2018-11-11T04:59:53.265Z,99.90
2018-11-11T05:02:21.796Z,99.90
2018-11-11T05:04:50.483Z,99.90
2018-11-11T05:07:18.915Z,99.90
2018-11-11T05:09:47.489Z,99.90
2018-11-11T05:12:16.048Z,99.90
2018-11-11T05:14:44.608Z,99.90
2018-11-11T05:17:13.207Z,99.90
2018-11-11T05:19:41.776Z,99.90
2018-11-11T05:22:10.321Z,99.90
2018-11-11T05:24:38.883Z,99.90
2018-11-11T05:27:07.461Z,99.90
2018-11-11T05:29:36.000Z,99.90
2018-11-11T05:32:04.788Z,99.90
2018-11-11T05:34:33.321Z,99.90
2018-11-11T05:37:01.896Z,99.90
2018-11-11T05:39:30.454Z,99.90
2018-11-11T05:41:58.987Z,99.90
2018-11-11T05:44:27.511Z,99.90
2018-11-11T05:46:56.077Z,99.90
2018-11-11T05:49:24.603Z,99.90
2018-11-11T05:51:53.160Z,99.90
2018-11-11T05:54:21.703Z,99.90
2018-11-11T05:56:50.254Z,99.90
2018-11-11T05:59:18.779Z,99.90
2018-11-11T06:01:48.255Z,99.90
2018-11-11T06:04:16.866Z,99.90
2018-11-11T06:06:45.405Z,99.90
2018-11-11T06:09:13.951Z,99.90
2018-11-11T06:11:42.515Z,99.90
2018-11-11T06:14:11.108Z,99.90
2018-11-11T06:16:39.653Z,99.90
2018-11-11T06:19:08.195Z,99.90
2018-11-11T06:21:36.749Z,99.90
2018-11-11T06:24:06.467Z,99.90
2018-11-11T06:26:35.015Z,99.90
2018-11-11T06:29:03.576Z,99.90
2018-11-11T06:31:32.131Z,99.90
2018-11-11T06:34:00.742Z,99.90
2018-11-11T06:36:29.281Z,99.90
2018-11-11T06:38:57.821Z,99.90
2018-11-11T06:41:26.357Z,99.90
2018-11-11T06:43:54.925Z,99.90
2018-11-11T06:46:23.511Z,99.90
2018-11-11T06:48:52.053Z,99.90
2018-11-11T06:51:20.739Z,99.90
2018-11-11T06:53:49.311Z,99.90
2018-11-11T06:56:18.175Z,99.90
2018-11-11T06:58:49.739Z,99.90
2018-11-11T07:01:18.331Z,99.90
2018-11-11T07:03:53.359Z,99.90
2018-11-11T07:06:22.247Z,99.90
2018-11-11T07:08:50.907Z,99.90
2018-11-11T07:11:19.951Z,99.90
2018-11-11T07:13:48.531Z,99.90
2018-11-11T07:16:17.096Z,99.90
2018-11-11T07:18:46.669Z,99.90
2018-11-11T07:21:15.781Z,99.90
2018-11-11T07:23:44.527Z,99.90
2018-11-11T07:26:13.189Z,99.90
2018-11-11T07:28:41.826Z,99.90
2018-11-11T07:31:10.509Z,99.90
2018-11-11T07:33:39.196Z,99.90
2018-11-11T07:36:08.745Z,99.90
2018-11-11T07:38:37.239Z,99.90
2018-11-11T07:41:05.995Z,99.90
2018-11-11T07:43:34.591Z,99.90
2018-11-11T07:46:03.436Z,99.90
2018-11-11T07:48:31.998Z,99.90
2018-11-11T07:51:00.576Z,99.90
2018-11-11T07:53:29.261Z,99.90
2018-11-11T07:55:57.799Z,99.90
2018-11-11T07:58:26.358Z,99.90
2018-11-11T08:00:54.911Z,99.90
2018-11-11T08:03:23.483Z,99.90
2018-11-11T08:05:52.015Z,99.90
2018-11-11T08:08:20.613Z,99.90
2018-11-11T08:11:00.200Z,99.90
2018-11-11T08:13:28.740Z,99.90
2018-11-11T08:15:57.260Z,99.90
2018-11-11T08:18:25.811Z,99.90
2018-11-11T08:20:54.340Z,99.90
2018-11-11T08:23:22.861Z,99.90
2018-11-11T08:25:51.402Z,99.90
2018-11-11T08:28:19.936Z,99.90
2018-11-11T08:30:48.460Z,99.90
2018-11-11T08:33:16.993Z,99.90
2018-11-11T08:35:45.543Z,99.90
2018-11-11T08:38:14.078Z,99.90
2018-11-11T08:40:42.663Z,99.90
2018-11-11T08:43:11.178Z,99.90
2018-11-11T08:45:39.782Z,99.90
2018-11-11T08:48:08.350Z,99.90
2018-11-11T08:50:36.884Z,99.90
2018-11-11T08:53:05.582Z,99.90
2018-11-11T08:55:34.157Z,99.90
2018-11-11T08:58:02.839Z,99.90
2018-11-11T09:00:31.346Z,99.90
2018-11-11T09:02:59.901Z,99.90
2018-11-11T09:05:28.439Z,99.90
2018-11-11T09:07:57.022Z,99.90
2018-11-11T09:10:25.627Z,99.90
2018-11-11T09:12:54.216Z,99.90
2018-11-11T09:15:22.765Z,99.90
2018-11-11T09:17:51.305Z,99.90
2018-11-11T09:20:19.932Z,99.90
2018-11-11T09:22:48.473Z,99.90
2018-11-11T09:25:17.020Z,99.90
2018-11-11T09:27:45.543Z,99.90
2018-11-11T09:30:15.348Z,99.90
2018-11-11T09:32:44.268Z,99.90
2018-11-11T09:35:12.949Z,99.90
2018-11-11T09:37:41.686Z,99.90
2018-11-11T09:40:11.499Z,99.90
2018-11-11T09:42:40.157Z,99.90
2018-11-11T09:45:10.813Z,99.90
2018-11-11T09:47:39.401Z,99.90
2018-11-11T09:50:10.009Z,99.90
2018-11-11T09:52:38.680Z,99.90
2018-11-11T09:55:08.114Z,99.90
2018-11-11T09:57:37.516Z,99.90
2018-11-11T10:00:09.211Z,99.90
2018-11-11T10:02:38.073Z,99.90
2018-11-11T10:05:12.046Z,99.90
2018-11-11T10:08:01.716Z,99.90
2018-11-11T10:10:35.847Z,99.90
2018-11-11T10:13:11.683Z,99.90
2018-11-11T10:16:48.012Z,99.90
2018-11-11T10:19:21.180Z,99.90
2018-11-11T10:21:55.307Z,99.90
2018-11-11T10:24:37.377Z,99.90
2018-11-11T10:27:20.452Z,99.90
2018-11-11T10:29:53.728Z,99.90
2018-11-11T10:32:40.735Z,99.90
2018-11-11T10:35:19.854Z,99.90
2018-11-11T10:37:54.481Z,99.90
2018-11-11T10:40:27.361Z,99.90
2018-11-11T10:43:58.589Z,99.90
2018-11-11T10:46:36.282Z,99.90
2018-11-11T10:49:06.384Z,99.90
2018-11-11T10:51:35.260Z,99.90
2018-11-11T10:54:03.959Z,99.90
2018-11-11T10:56:32.449Z,99.90
2018-11-11T10:59:00.988Z,99.90
2018-11-11T11:01:34.920Z,99.90
2018-11-11T11:04:04.060Z,99.90
2018-11-11T11:06:37.960Z,99.90
2018-11-11T11:09:11.926Z,99.90
2018-11-11T11:11:41.197Z,98.20
2018-11-11T11:14:09.916Z,97.50
2018-11-11T11:16:38.690Z,98.50
2018-11-11T11:19:07.318Z,98.30
2018-11-11T11:21:35.879Z,97.70
2018-11-11T11:24:04.484Z,98.10
2018-11-11T11:26:33.066Z,97.10
2018-11-11T11:29:01.671Z,98.20
2018-11-11T11:31:30.862Z,99.00
2018-11-11T11:33:59.532Z,99.60
2018-11-11T11:36:28.065Z,99.40
2018-11-11T11:38:56.595Z,98.50
2018-11-11T11:41:25.212Z,98.10
2018-11-11T11:43:53.738Z,99.70
2018-11-11T11:46:22.255Z,99.90
2018-11-11T11:48:50.817Z,99.90
2018-11-11T11:51:19.375Z,99.90
2018-11-11T11:53:49.981Z,99.90
2018-11-11T11:56:18.553Z,99.90
2018-11-11T11:58:47.097Z,99.90
2018-11-11T12:01:16.213Z,99.90
2018-11-11T12:03:45.058Z,99.90
2018-11-11T12:06:13.695Z,99.90
2018-11-11T12:08:42.310Z,99.90
2018-11-11T12:11:10.939Z,99.90
2018-11-11T12:13:39.529Z,99.90
2018-11-11T12:16:08.094Z,99.90
2018-11-11T12:18:36.660Z,99.90
2018-11-11T12:21:05.428Z,99.90
